createdAt,value
2023-05-19T00:01:37.706Z,2.50
2023-05-19T00:04:27.634Z,3.00
2023-05-19T00:07:21.710Z,2.20
2023-05-19T00:10:11.109Z,2.40
2023-05-19T00:12:59.925Z,2.50
2023-05-19T00:15:48.737Z,2.40
2023-05-19T00:18:37.256Z,2.10
2023-05-19T00:21:26.457Z,2.80
2023-05-19T00:24:14.925Z,2.60
2023-05-19T00:27:03.628Z,2.60
2023-05-19T00:29:52.229Z,2.40
2023-05-19T00:32:41.041Z,22.10
2023-05-19T00:35:29.781Z,5.20
2023-05-19T00:38:19.819Z,3.20
2023-05-19T00:41:08.688Z,4.30
2023-05-19T00:43:57.668Z,3.80
2023-05-19T00:46:46.530Z,3.80
2023-05-19T00:49:36.119Z,8.10
2023-05-19T00:52:24.668Z,4.10
2023-05-19T00:55:14.678Z,4.90
2023-05-19T00:58:05.502Z,2.70
2023-05-19T01:00:56.115Z,3.90
2023-05-19T01:03:45.435Z,3.50
2023-05-19T01:06:34.681Z,2.90
2023-05-19T01:09:23.384Z,5.30
2023-05-19T01:12:11.959Z,2.70
2023-05-19T01:15:01.455Z,4.60
2023-05-19T01:18:01.407Z,2.70
2023-05-19T01:21:06.952Z,3.20
2023-05-19T01:24:22.932Z,4.40
2023-05-19T01:27:48.428Z,6.90
2023-05-19T01:30:40.732Z,5.00
2023-05-19T01:33:31.226Z,5.80
2023-05-19T01:36:22.531Z,5.20
2023-05-19T01:42:01.759Z,4.30
2023-05-19T01:44:51.403Z,4.50
2023-05-19T01:47:42.892Z,3.60
2023-05-19T01:50:32.831Z,5.00
2023-05-19T01:53:21.718Z,5.10
2023-05-19T01:56:10.584Z,4.00
2023-05-19T01:59:09.714Z,3.00
2023-05-19T02:02:03.214Z,3.50
2023-05-19T02:05:00.469Z,5.50
2023-05-19T02:07:59.165Z,6.20
2023-05-19T02:10:54.056Z,4.90
2023-05-19T02:13:46.680Z,4.80
2023-05-19T02:16:37.270Z,4.70
2023-05-19T02:19:28.220Z,5.20
2023-05-19T02:22:17.127Z,3.70
2023-05-19T02:25:06.045Z,4.00
2023-05-19T02:27:54.759Z,4.30
2023-05-19T02:30:43.328Z,5.30
2023-05-19T02:33:31.830Z,5.30
2023-05-19T02:36:20.387Z,4.60
2023-05-19T02:39:09.977Z,5.60
2023-05-19T02:41:58.554Z,6.20
2023-05-19T02:44:48.683Z,8.20
2023-05-19T02:47:38.525Z,4.30
2023-05-19T02:50:28.041Z,3.80
2023-05-19T02:53:16.702Z,3.80
2023-05-19T02:56:05.882Z,3.80
2023-05-19T02:58:54.420Z,3.50
2023-05-19T03:01:43.046Z,4.30
2023-05-19T03:04:31.773Z,3.50
2023-05-19T03:07:25.062Z,3.20
2023-05-19T03:10:13.755Z,3.40
2023-05-19T03:13:02.276Z,3.90
2023-05-19T03:15:51.253Z,4.10
2023-05-19T03:18:41.776Z,3.60
2023-05-19T03:21:32.065Z,5.00
2023-05-19T03:24:20.993Z,5.90
2023-05-19T03:27:09.758Z,4.00
2023-05-19T03:29:58.917Z,5.30
2023-05-19T03:32:47.853Z,4.30
2023-05-19T03:35:37.044Z,4.70
2023-05-19T03:38:26.548Z,5.00
2023-05-19T03:41:18.614Z,5.20
2023-05-19T03:44:07.338Z,5.20
2023-05-19T03:46:56.006Z,5.10
2023-05-19T03:50:02.810Z,5.60
2023-05-19T03:53:12.271Z,5.40
2023-05-19T03:56:02.616Z,6.40
2023-05-19T03:58:51.144Z,5.40
2023-05-19T04:01:40.178Z,6.30
2023-05-19T04:04:28.909Z,5.40
2023-05-19T04:07:17.436Z,5.40
2023-05-19T04:10:06.730Z,6.10
2023-05-19T04:12:55.364Z,6.10
2023-05-19T04:15:43.996Z,9.60
2023-05-19T04:18:32.609Z,5.40
2023-05-19T04:21:22.442Z,5.60
2023-05-19T04:24:11.038Z,6.80
2023-05-19T04:27:02.549Z,5.90
2023-05-19T04:29:51.204Z,5.80
2023-05-19T04:32:41.437Z,5.50
2023-05-19T04:35:30.166Z,5.50
2023-05-19T04:38:20.275Z,5.20
2023-05-19T04:41:12.316Z,5.40
2023-05-19T04:44:01.828Z,6.10
2023-05-19T04:46:54.372Z,5.90
2023-05-19T04:49:44.589Z,5.40
2023-05-19T04:52:33.481Z,5.00
2023-05-19T04:55:23.124Z,4.80
2023-05-19T04:58:12.062Z,5.40
2023-05-19T05:01:00.792Z,5.70
2023-05-19T05:03:50.073Z,5.40
2023-05-19T05:06:38.775Z,5.10
2023-05-19T05:09:28.102Z,4.90
2023-05-19T05:12:19.111Z,4.40
2023-05-19T05:15:09.094Z,4.10
2023-05-19T05:17:58.638Z,5.50
2023-05-19T05:20:48.392Z,5.30
2023-05-19T05:23:39.369Z,5.80
2023-05-19T05:29:18.563Z,4.70
2023-05-19T05:32:08.213Z,4.50
2023-05-19T05:34:57.084Z,4.90
2023-05-19T05:37:46.723Z,3.90
2023-05-19T05:40:35.337Z,3.90
2023-05-19T05:43:24.783Z,4.30
2023-05-19T05:46:17.554Z,3.80
2023-05-19T05:49:06.608Z,3.90
2023-05-19T05:52:05.480Z,3.30
2023-05-19T05:54:57.413Z,4.30
2023-05-19T05:57:46.378Z,3.70
2023-05-19T06:00:35.157Z,3.50
2023-05-19T06:03:24.645Z,3.30
2023-05-19T06:06:14.285Z,2.80
2023-05-19T06:09:03.137Z,3.70
2023-05-19T06:11:52.136Z,2.80
2023-05-19T06:14:40.920Z,2.60
2023-05-19T06:17:41.128Z,3.10
2023-05-19T06:20:29.923Z,2.60
2023-05-19T06:23:19.672Z,2.20
2023-05-19T06:26:08.295Z,2.20
2023-05-19T06:28:57.114Z,2.50
2023-05-19T06:31:47.722Z,2.10
2023-05-19T06:34:40.453Z,3.10
2023-05-19T06:37:29.255Z,2.60
2023-05-19T06:40:18.804Z,2.60
2023-05-19T06:43:07.612Z,2.50
2023-05-19T06:46:13.726Z,3.00
2023-05-19T06:49:02.527Z,2.10
2023-05-19T06:51:54.351Z,3.30
2023-05-19T06:54:43.035Z,2.80
2023-05-19T06:57:31.885Z,3.50
2023-05-19T07:00:22.119Z,3.60
2023-05-19T07:03:13.216Z,3.90
2023-05-19T07:06:02.194Z,3.10
2023-05-19T07:08:50.900Z,2.80
2023-05-19T07:11:40.433Z,3.60
2023-05-19T07:14:29.643Z,3.40
2023-05-19T07:17:18.323Z,2.90
2023-05-19T07:20:10.104Z,12.40
2023-05-19T07:22:58.949Z,4.00
2023-05-19T07:25:47.549Z,3.90
2023-05-19T07:28:36.214Z,8.30
2023-05-19T07:31:24.898Z,4.20
2023-05-19T07:34:13.601Z,3.10
2023-05-19T07:37:02.171Z,5.00
2023-05-19T07:39:50.823Z,3.80
2023-05-19T07:42:39.470Z,5.90
2023-05-19T07:45:27.962Z,5.90
2023-05-19T07:48:18.827Z,7.80
2023-05-19T07:53:58.689Z,4.90
2023-05-19T07:56:48.271Z,5.10
2023-05-19T07:59:37.099Z,7.40
2023-05-19T08:02:25.903Z,3.50
2023-05-19T08:05:15.175Z,3.40
2023-05-19T08:08:04.288Z,3.00
2023-05-19T08:10:52.847Z,3.00
2023-05-19T08:13:41.712Z,2.50
2023-05-19T08:16:30.408Z,2.60
2023-05-19T08:19:19.179Z,2.80
2023-05-19T08:22:07.752Z,4.20
2023-05-19T08:24:57.017Z,2.60
2023-05-19T08:27:46.053Z,2.40
2023-05-19T08:30:34.884Z,2.80
2023-05-19T08:33:23.661Z,3.00
2023-05-19T08:36:12.180Z,3.00
2023-05-19T08:39:00.895Z,3.20
2023-05-19T08:41:49.834Z,3.40
2023-05-19T08:44:40.103Z,3.80
2023-05-19T08:47:29.589Z,3.70
2023-05-19T08:50:24.924Z,3.50
2023-05-19T08:53:33.356Z,3.30
2023-05-19T08:56:25.010Z,3.00
2023-05-19T08:59:15.301Z,3.80
2023-05-19T09:02:04.717Z,3.60
2023-05-19T09:04:53.694Z,3.70
2023-05-19T09:07:43.839Z,3.70
2023-05-19T09:10:32.419Z,3.00
2023-05-19T09:13:21.130Z,3.70
2023-05-19T09:16:09.842Z,3.40
2023-05-19T09:18:58.818Z,4.50
2023-05-19T09:21:59.640Z,9.00
2023-05-19T09:24:48.578Z,5.10
2023-05-19T09:27:37.725Z,4.00
2023-05-19T09:30:26.388Z,3.40
2023-05-19T09:33:19.873Z,3.70
2023-05-19T09:36:10.861Z,3.60
2023-05-19T09:41:52.060Z,3.90
2023-05-19T09:44:41.519Z,3.90
2023-05-19T09:47:41.478Z,4.00
2023-05-19T09:50:30.927Z,3.80
2023-05-19T09:53:19.662Z,4.90
2023-05-19T09:56:08.851Z,4.30
2023-05-19T09:58:57.697Z,4.60
2023-05-19T10:01:47.236Z,4.20
2023-05-19T10:04:36.429Z,3.90
2023-05-19T10:07:25.034Z,6.40
2023-05-19T10:10:15.543Z,4.40
2023-05-19T10:13:05.102Z,5.60
2023-05-19T10:15:58.755Z,4.90
2023-05-19T10:18:51.555Z,4.60
2023-05-19T10:21:40.082Z,4.20
2023-05-19T10:24:28.601Z,5.20
2023-05-19T10:27:18.463Z,8.10
2023-05-19T10:30:20.286Z,4.70
2023-05-19T10:33:13.996Z,4.90
2023-05-19T10:36:15.905Z,5.60
2023-05-19T10:39:06.744Z,6.70
2023-05-19T10:42:07.298Z,6.80
2023-05-19T10:45:05.601Z,6.60
2023-05-19T10:47:54.756Z,5.00
2023-05-19T10:50:45.980Z,6.10
2023-05-19T10:53:35.111Z,5.20
2023-05-19T10:56:33.979Z,4.90
2023-05-19T10:59:33.628Z,7.70
2023-05-19T11:02:44.365Z,4.80
2023-05-19T11:05:45.228Z,4.80
2023-05-19T11:08:34.984Z,4.90
2023-05-19T11:11:56.709Z,5.00
2023-05-19T11:14:45.379Z,7.60
2023-05-19T11:17:35.256Z,6.90
2023-05-19T11:20:26.362Z,6.70
2023-05-19T11:26:09.046Z,7.00
2023-05-19T11:28:58.144Z,7.00
2023-05-19T11:31:48.730Z,5.70
2023-05-19T11:34:38.489Z,6.70
2023-05-19T11:37:29.108Z,5.00
2023-05-19T11:40:18.056Z,5.80
2023-05-19T11:43:06.706Z,4.90
2023-05-19T11:45:56.075Z,4.60
2023-05-19T11:48:47.491Z,5.10
2023-05-19T11:51:36.351Z,5.00
2023-05-19T11:54:36.586Z,5.40
2023-05-19T11:57:25.232Z,5.40
2023-05-19T12:00:14.784Z,5.30
2023-05-19T12:03:03.431Z,5.60
2023-05-19T12:05:52.330Z,6.20
2023-05-19T12:08:41.054Z,6.70
2023-05-19T12:11:29.658Z,6.30
2023-05-19T12:14:18.704Z,6.50
2023-05-19T12:17:12.411Z,7.50
2023-05-19T12:20:01.589Z,7.70
2023-05-19T12:22:51.197Z,5.90
2023-05-19T12:25:39.944Z,6.20
2023-05-19T12:28:31.241Z,6.50
2023-05-19T12:31:24.006Z,6.50
2023-05-19T12:34:13.211Z,6.10
2023-05-19T12:37:02.725Z,7.00
2023-05-19T12:39:51.305Z,7.00
2023-05-19T12:42:45.357Z,5.50
2023-05-19T12:45:38.673Z,6.10
2023-05-19T12:48:28.628Z,6.60
2023-05-19T12:51:18.920Z,6.30
2023-05-19T12:54:08.762Z,9.00
2023-05-19T12:56:58.848Z,6.60
2023-05-19T12:59:48.382Z,6.60
2023-05-19T13:02:55.982Z,7.10
2023-05-19T13:05:48.277Z,7.30
2023-05-19T13:08:39.410Z,8.60
2023-05-19T13:11:28.018Z,8.50
2023-05-19T13:14:18.626Z,7.90
2023-05-19T13:17:07.273Z,8.10
2023-05-19T13:19:55.930Z,7.80
2023-05-19T13:22:44.749Z,8.10
2023-05-19T13:25:34.421Z,7.50
2023-05-19T13:28:24.018Z,7.20
2023-05-19T13:31:15.998Z,7.00
2023-05-19T13:34:09.569Z,6.70
2023-05-19T13:36:59.743Z,6.70
2023-05-19T13:39:51.310Z,7.10
2023-05-19T13:42:41.142Z,7.30
2023-05-19T13:45:33.989Z,8.60
2023-05-19T13:48:22.579Z,7.10
2023-05-19T13:51:12.222Z,8.20
2023-05-19T13:54:00.768Z,7.70
2023-05-19T13:56:49.327Z,8.60
2023-05-19T13:59:48.904Z,8.20
2023-05-19T14:02:46.561Z,8.40
2023-05-19T14:05:35.717Z,20.20
2023-05-19T14:08:24.326Z,8.00
2023-05-19T14:11:20.213Z,10.50
2023-05-19T14:14:09.405Z,8.40
2023-05-19T14:19:48.120Z,8.70
2023-05-19T14:22:36.787Z,7.90
2023-05-19T14:25:25.573Z,9.00
2023-05-19T14:28:14.196Z,13.50
2023-05-19T14:31:03.185Z,7.90
2023-05-19T14:33:52.361Z,9.50
2023-05-19T14:36:42.903Z,9.00
2023-05-19T14:39:31.522Z,9.10
2023-05-19T14:42:20.233Z,11.10
2023-05-19T14:45:09.383Z,8.40
2023-05-19T14:47:57.972Z,8.20
2023-05-19T14:50:48.914Z,9.10
2023-05-19T14:53:37.534Z,11.50
2023-05-19T14:56:26.297Z,9.30
2023-05-19T14:59:14.851Z,8.50
2023-05-19T15:02:03.431Z,11.00
2023-05-19T15:04:52.438Z,10.70
2023-05-19T15:07:41.021Z,10.00
2023-05-19T15:10:30.664Z,10.70
2023-05-19T15:13:19.398Z,10.70
2023-05-19T15:16:17.533Z,10.80
2023-05-19T15:19:06.804Z,14.20
2023-05-19T15:21:55.461Z,13.00
2023-05-19T15:24:44.294Z,11.70
2023-05-19T15:27:35.116Z,10.70
2023-05-19T15:30:23.997Z,11.10
2023-05-19T15:33:12.839Z,10.90
2023-05-19T15:36:01.576Z,11.20
2023-05-19T15:38:50.187Z,12.10
2023-05-19T15:41:39.306Z,18.00
2023-05-19T15:44:29.025Z,11.70
2023-05-19T15:47:17.755Z,11.30
2023-05-19T15:50:06.791Z,10.80
2023-05-19T15:52:55.533Z,11.70
2023-05-19T15:55:44.129Z,12.60
2023-05-19T15:58:32.705Z,12.20
2023-05-19T16:01:21.740Z,11.20
2023-05-19T16:04:10.535Z,13.50
2023-05-19T16:06:59.195Z,14.20
2023-05-19T16:09:48.763Z,15.30
2023-05-19T16:12:37.824Z,15.20
2023-05-19T16:15:26.565Z,20.10
2023-05-19T16:18:16.069Z,11.50
2023-05-19T16:21:05.086Z,20.90
2023-05-19T16:23:53.603Z,15.90
2023-05-19T16:26:42.157Z,14.10
2023-05-19T16:29:30.751Z,15.60
2023-05-19T16:32:20.747Z,14.30
2023-05-19T16:35:10.429Z,15.90
2023-05-19T16:37:59.000Z,15.30
2023-05-19T16:40:47.814Z,14.80
2023-05-19T16:43:36.401Z,15.30
2023-05-19T16:46:25.004Z,17.50
2023-05-19T16:52:18.970Z,21.50
2023-05-19T16:55:07.888Z,24.10
2023-05-19T16:57:56.404Z,15.10
2023-05-19T17:00:45.066Z,21.70
2023-05-19T17:03:35.705Z,26.80
2023-05-19T17:06:24.507Z,20.40
2023-05-19T17:09:13.219Z,17.10
2023-05-19T17:12:01.776Z,15.50
2023-05-19T17:14:52.220Z,20.70
2023-05-19T17:17:41.040Z,19.40
2023-05-19T17:20:29.683Z,16.00
2023-05-19T17:23:18.360Z,15.20
2023-05-19T17:26:06.888Z,16.20
2023-05-19T17:28:55.603Z,20.60
2023-05-19T17:31:44.491Z,12.70
2023-05-19T17:34:33.114Z,23.60
2023-05-19T17:37:25.632Z,16.20
2023-05-19T17:40:14.317Z,22.60
2023-05-19T17:43:02.881Z,28.50
2023-05-19T17:45:51.730Z,18.00
2023-05-19T17:48:41.809Z,17.80
2023-05-19T17:51:34.661Z,15.10
2023-05-19T17:54:28.357Z,16.60
2023-05-19T17:57:18.310Z,22.30
2023-05-19T18:00:07.711Z,18.70
2023-05-19T18:02:57.673Z,17.50
2023-05-19T18:05:47.149Z,23.20
2023-05-19T18:08:37.503Z,24.60
2023-05-19T18:11:26.619Z,16.90
2023-05-19T18:14:15.192Z,25.20
2023-05-19T18:17:04.343Z,17.70
2023-05-19T18:19:54.557Z,18.60
2023-05-19T18:22:43.422Z,26.60
2023-05-19T18:25:32.021Z,20.60
2023-05-19T18:28:20.710Z,55.60
2023-05-19T18:31:15.663Z,28.90
2023-05-19T18:34:04.694Z,17.20
2023-05-19T18:36:53.610Z,14.90
2023-05-19T18:39:42.248Z,18.00
2023-05-19T18:42:30.832Z,24.40
2023-05-19T18:45:19.466Z,18.50
2023-05-19T18:48:08.209Z,23.90
2023-05-19T18:50:57.268Z,19.20
2023-05-19T18:53:48.682Z,19.00
2023-05-19T18:56:37.508Z,20.30
2023-05-19T18:59:26.118Z,24.40
2023-05-19T19:02:14.649Z,16.50
2023-05-19T19:05:04.149Z,18.40
2023-05-19T19:07:53.386Z,17.00
2023-05-19T19:10:42.588Z,19.10
2023-05-19T19:13:31.194Z,27.20
2023-05-19T19:16:19.749Z,22.90
2023-05-19T19:19:08.404Z,24.80
2023-05-19T19:21:57.105Z,22.60
2023-05-19T19:24:45.805Z,23.40
2023-05-19T19:27:35.718Z,26.00
2023-05-19T19:30:25.594Z,18.80
2023-05-19T19:33:14.188Z,26.70
2023-05-19T19:36:03.005Z,21.70
2023-05-19T19:38:51.533Z,19.20
2023-05-19T19:41:40.990Z,18.70
2023-05-19T19:44:29.552Z,20.20
2023-05-19T19:47:18.116Z,22.30
2023-05-19T19:50:08.110Z,22.30
2023-05-19T19:52:59.128Z,26.40
2023-05-19T19:56:01.573Z,23.90
2023-05-19T19:58:50.898Z,27.50
2023-05-19T20:01:41.932Z,20.30
2023-05-19T20:04:30.591Z,31.10
2023-05-19T20:07:20.808Z,33.40
2023-05-19T20:10:09.858Z,25.20
2023-05-19T20:12:59.329Z,20.80
2023-05-19T20:15:48.055Z,23.10
2023-05-19T20:18:36.655Z,21.00
2023-05-19T20:21:25.249Z,24.10
2023-05-19T20:24:13.973Z,21.40
2023-05-19T20:27:02.597Z,24.10
2023-05-19T20:29:51.176Z,22.30
2023-05-19T20:32:40.158Z,27.10
2023-05-19T20:35:28.728Z,19.80
2023-05-19T20:38:17.227Z,21.10
2023-05-19T20:41:05.858Z,38.20
2023-05-19T20:43:55.086Z,32.10
2023-05-19T20:46:43.627Z,60.60
2023-05-19T20:49:32.262Z,23.40
2023-05-19T20:52:21.022Z,29.40
2023-05-19T20:55:10.189Z,21.10
2023-05-19T20:57:58.745Z,21.80
2023-05-19T21:00:48.782Z,31.20
2023-05-19T21:03:37.337Z,28.60
2023-05-19T21:06:26.036Z,20.10
2023-05-19T21:09:14.847Z,20.20
2023-05-19T21:12:03.689Z,21.90
2023-05-19T21:14:53.544Z,20.70
2023-05-19T21:17:42.131Z,27.20
2023-05-19T21:20:30.844Z,23.00
2023-05-19T21:23:19.486Z,24.40
2023-05-19T21:26:08.032Z,23.40
2023-05-19T21:28:56.612Z,23.40
2023-05-19T21:31:45.163Z,20.40
2023-05-19T21:34:33.806Z,21.20
2023-05-19T21:37:22.398Z,37.30
2023-05-19T21:40:11.699Z,21.60
2023-05-19T21:43:00.270Z,23.50
2023-05-19T21:45:48.809Z,27.40
2023-05-19T21:48:37.574Z,29.30
2023-05-19T21:51:26.097Z,29.30
2023-05-19T21:54:14.675Z,27.10
2023-05-19T21:57:03.484Z,24.90
2023-05-19T21:59:52.039Z,23.70
2023-05-19T22:02:40.746Z,24.50
2023-05-19T22:05:30.609Z,26.80
2023-05-19T22:08:20.674Z,21.20
2023-05-19T22:11:09.516Z,28.70
2023-05-19T22:13:58.295Z,37.00
2023-05-19T22:16:47.679Z,43.50
2023-05-19T22:19:36.326Z,41.10
2023-05-19T22:22:24.896Z,30.80
2023-05-19T22:25:13.421Z,46.20
2023-05-19T22:28:02.079Z,26.70
2023-05-19T22:30:50.710Z,23.70
2023-05-19T22:33:39.209Z,26.10
2023-05-19T22:36:27.756Z,27.70
2023-05-19T22:39:16.587Z,22.40
2023-05-19T22:42:05.456Z,22.60
2023-05-19T22:44:53.980Z,22.80
2023-05-19T22:47:42.719Z,22.50
2023-05-19T22:50:31.498Z,21.80
2023-05-19T22:53:20.004Z,20.90
2023-05-19T22:56:08.955Z,21.80
2023-05-19T22:58:57.478Z,21.10
2023-05-19T23:01:46.785Z,19.30
2023-05-19T23:04:36.354Z,21.00
2023-05-19T23:07:25.048Z,39.30
2023-05-19T23:10:13.629Z,35.40
2023-05-19T23:13:02.377Z,21.60
2023-05-19T23:15:50.983Z,26.50
2023-05-19T23:18:39.603Z,19.90
2023-05-19T23:21:30.411Z,38.20
2023-05-19T23:24:19.911Z,25.90
2023-05-19T23:27:08.682Z,21.10
2023-05-19T23:29:57.257Z,27.60
2023-05-19T23:32:45.861Z,23.20
2023-05-19T23:35:34.720Z,22.00
2023-05-19T23:38:23.534Z,24.80
2023-05-19T23:41:12.272Z,23.60
2023-05-19T23:44:00.855Z,21.50
2023-05-19T23:46:49.392Z,21.80
2023-05-19T23:49:37.966Z,21.10
2023-05-19T23:52:26.849Z,21.60
2023-05-19T23:55:15.628Z,28.50
2023-05-19T23:58:04.285Z,22.90
